Albert, Kansas
Current Conditions -  °F | °C
As of 12:35 PM on Thursday 23 Oct 2014 (Local Time) from KGBD Reporting Station
Clear Clear  
Wind Chill: 70°   Ceiling: Unl
Heat Index: 70°   Visibility: 10mi
Dew Point: 57°   Wind: 5mph
Humidity: 64%   Direction: 160°SSE
Pressure: 30.1"   Gusts: NA
Location:  38.45°N, 99.01°W
Report Text: KGBD 231735Z AUTO 16004KT 10SM CLR 21/14 A3010 RMK AO1
Loading
Personal Weather Stations






























Interactive Weather Map New forecast layout! Learn more

10-Day Weather Forecast

Advertisements
Track Severe Weather on mobile